createdAt,value
2022-10-13T00:00:49.845Z,101978.63
2022-10-13T00:03:17.397Z,101982.28
2022-10-13T00:05:46.935Z,101966.84
2022-10-13T00:08:16.617Z,101968.38
2022-10-13T00:10:43.318Z,101960.28
2022-10-13T00:13:09.890Z,101959.69
2022-10-13T00:15:45.600Z,101960.59
2022-10-13T00:18:14.359Z,101961.22
2022-10-13T00:20:43.550Z,101958.13
2022-10-13T00:23:11.584Z,101957.97
2022-10-13T00:25:46.731Z,101954.50
2022-10-13T00:28:14.891Z,101957.09
2022-10-13T00:30:41.669Z,101945.78
2022-10-13T00:33:09.761Z,101941.19
2022-10-13T00:35:42.458Z,101940.97
2022-10-13T00:38:09.165Z,101941.94
2022-10-13T00:40:47.759Z,101944.34
2022-10-13T00:43:24.100Z,101948.72
2022-10-13T00:45:51.290Z,101942.25
2022-10-13T00:48:21.886Z,101951.88
2022-10-13T00:50:48.957Z,101951.47
2022-10-13T00:53:18.274Z,101945.50
2022-10-13T00:55:47.555Z,101946.59
2022-10-13T00:58:16.777Z,101949.34
2022-10-13T01:00:46.930Z,101950.88
2022-10-13T01:03:13.746Z,101950.41
2022-10-13T01:05:42.404Z,101953.00
2022-10-13T01:08:11.981Z,101950.78
2022-10-13T01:10:46.553Z,101951.50
2022-10-13T01:13:47.559Z,101940.78
2022-10-13T01:16:20.583Z,101940.38
2022-10-13T01:19:12.033Z,101939.88
2022-10-13T01:21:52.990Z,101945.38
2022-10-13T01:24:22.697Z,101944.63
2022-10-13T01:27:35.896Z,101952.09
2022-10-13T01:30:18.512Z,101943.56
2022-10-13T01:33:26.351Z,101942.34
2022-10-13T01:36:06.475Z,101938.84
2022-10-13T01:38:54.368Z,101952.59
2022-10-13T01:41:20.841Z,101946.94
2022-10-13T01:44:00.749Z,101938.50
2022-10-13T01:46:30.949Z,101937.47
2022-10-13T01:49:01.457Z,101927.31
2022-10-13T01:51:30.534Z,101935.63
2022-10-13T01:53:58.228Z,101928.31
2022-10-13T01:56:24.760Z,101927.72
2022-10-13T01:58:53.349Z,101926.31
2022-10-13T02:02:01.304Z,101926.34
2022-10-13T02:04:37.616Z,101926.03
2022-10-13T02:07:20.334Z,101924.03
2022-10-13T02:10:14.722Z,101910.41
2022-10-13T02:12:57.644Z,101893.53
2022-10-13T02:15:31.310Z,101906.72
2022-10-13T02:17:58.652Z,101897.09
2022-10-13T02:20:25.201Z,101897.22
2022-10-13T02:22:57.576Z,101894.19
2022-10-13T02:25:25.250Z,101894.03
2022-10-13T02:27:52.741Z,101894.34
2022-10-13T02:30:25.679Z,101895.88
2022-10-13T02:32:52.260Z,101893.84
2022-10-13T02:35:19.485Z,101898.63
2022-10-13T02:37:46.042Z,101894.34
2022-10-13T02:40:13.183Z,101891.25
2022-10-13T02:42:40.110Z,101896.16
2022-10-13T02:45:07.727Z,101890.06
2022-10-13T02:47:34.428Z,101881.47
2022-10-13T02:50:01.116Z,101877.81
2022-10-13T02:52:27.607Z,101875.47
2022-10-13T02:54:54.171Z,101863.38
2022-10-13T02:57:20.671Z,101863.06
2022-10-13T02:59:47.405Z,101859.84
2022-10-13T03:02:14.368Z,101850.66
2022-10-13T03:04:41.068Z,101843.78
2022-10-13T03:07:07.583Z,101849.09
2022-10-13T03:15:23.105Z,101872.09
2022-10-13T03:17:50.035Z,101864.59
2022-10-13T03:20:17.523Z,101863.38
2022-10-13T03:22:48.830Z,101872.88
2022-10-13T03:25:16.674Z,101856.78
2022-10-13T03:27:43.308Z,101859.66
2022-10-13T03:30:10.882Z,101866.72
2022-10-13T03:32:37.349Z,101857.69
2022-10-13T03:35:04.321Z,101850.00
2022-10-13T03:37:30.856Z,101845.22
2022-10-13T03:39:57.387Z,101839.13
2022-10-13T03:42:23.972Z,101835.63
2022-10-13T03:44:55.219Z,101831.13
2022-10-13T03:47:22.837Z,101835.91
2022-10-13T03:49:51.734Z,101844.78
2022-10-13T03:52:18.744Z,101831.59
2022-10-13T03:54:45.377Z,101834.78
2022-10-13T03:57:11.825Z,101837.59
2022-10-13T03:59:40.803Z,101834.06
2022-10-13T04:02:08.246Z,101827.16
2022-10-13T04:04:35.328Z,101818.13
2022-10-13T04:07:01.974Z,101823.69
2022-10-13T04:09:28.665Z,101826.84
2022-10-13T04:11:55.150Z,101822.25
2022-10-13T04:14:21.685Z,101832.06
2022-10-13T04:16:48.408Z,101827.41
2022-10-13T04:19:16.090Z,101805.66
2022-10-13T04:21:43.872Z,101793.25
2022-10-13T04:24:12.437Z,101784.50
2022-10-13T04:26:40.095Z,101786.47
2022-10-13T04:29:08.519Z,101787.88
2022-10-13T04:31:35.424Z,101792.31
2022-10-13T04:34:01.963Z,101791.25
2022-10-13T04:36:28.439Z,101804.47
2022-10-13T04:38:55.719Z,101810.75
2022-10-13T04:41:23.005Z,101810.44
2022-10-13T04:43:50.645Z,101798.91
2022-10-13T04:46:22.425Z,101805.66
2022-10-13T04:48:48.997Z,101803.97
2022-10-13T04:51:18.193Z,101810.22
2022-10-13T04:53:44.997Z,101802.59
2022-10-13T04:56:14.541Z,101804.25
2022-10-13T04:58:42.547Z,101794.00
2022-10-13T05:01:21.414Z,101799.34
2022-10-13T05:03:52.602Z,101817.75
2022-10-13T05:06:22.615Z,101821.31
2022-10-13T05:08:50.248Z,101824.03
2022-10-13T05:11:18.552Z,101819.78
2022-10-13T05:13:45.049Z,101821.13
2022-10-13T05:16:13.786Z,101813.47
2022-10-13T05:18:40.836Z,101831.22
2022-10-13T05:21:13.695Z,101822.63
2022-10-13T05:23:40.775Z,101813.91
2022-10-13T05:26:10.797Z,101820.34
2022-10-13T05:28:38.007Z,101814.81
2022-10-13T05:31:18.366Z,101818.91
2022-10-13T05:33:45.646Z,101815.25
2022-10-13T05:36:21.524Z,101819.66
2022-10-13T05:38:53.605Z,101819.22
2022-10-13T05:41:21.338Z,101813.84
2022-10-13T05:43:48.279Z,101809.41
2022-10-13T05:46:14.949Z,101817.50
2022-10-13T05:48:41.488Z,101816.16
2022-10-13T05:51:12.537Z,101814.66
2022-10-13T05:53:48.043Z,101808.47
2022-10-13T05:56:22.093Z,101808.97
2022-10-13T05:58:53.709Z,101806.66
2022-10-13T06:01:24.660Z,101810.00
2022-10-13T06:03:54.873Z,101803.69
2022-10-13T06:06:22.869Z,101789.41
2022-10-13T06:08:50.734Z,101785.69
2022-10-13T06:11:17.803Z,101772.63
2022-10-13T06:13:44.335Z,101774.25
2022-10-13T06:16:11.116Z,101776.31
2022-10-13T06:18:38.223Z,101771.97
2022-10-13T06:21:04.864Z,101775.34
2022-10-13T06:23:31.359Z,101774.19
2022-10-13T06:25:57.950Z,101782.59
2022-10-13T06:28:24.694Z,101782.06
2022-10-13T06:30:56.469Z,101770.81
2022-10-13T06:33:24.184Z,101766.91
2022-10-13T06:35:54.143Z,101746.34
2022-10-13T06:38:20.617Z,101761.22
2022-10-13T06:40:47.208Z,101777.47
2022-10-13T06:43:14.041Z,101778.88
2022-10-13T06:45:40.547Z,101793.06
2022-10-13T06:48:07.314Z,101794.53
2022-10-13T06:50:34.045Z,101795.41
2022-10-13T06:53:00.571Z,101789.41
2022-10-13T06:55:27.146Z,101782.81
2022-10-13T06:57:53.703Z,101786.78
2022-10-13T07:00:20.823Z,101790.59
2022-10-13T07:02:50.475Z,101790.47
2022-10-13T07:05:17.199Z,101796.25
2022-10-13T07:07:43.790Z,101796.25
2022-10-13T07:10:10.415Z,101775.59
2022-10-13T07:12:36.912Z,101787.28
2022-10-13T07:15:03.887Z,101784.63
2022-10-13T07:17:30.530Z,101789.97
2022-10-13T07:19:58.038Z,101793.66
2022-10-13T07:22:26.960Z,101796.28
2022-10-13T07:24:53.423Z,101790.75
2022-10-13T07:27:20.414Z,101780.41
2022-10-13T07:29:47.059Z,101779.66
2022-10-13T07:32:13.505Z,101780.94
2022-10-13T07:34:40.112Z,101774.19
2022-10-13T07:37:06.542Z,101781.38
2022-10-13T07:39:33.058Z,101782.03
2022-10-13T07:41:59.568Z,101770.81
2022-10-13T07:44:26.521Z,101772.06
2022-10-13T07:46:53.127Z,101771.22
2022-10-13T07:49:20.269Z,101780.19
2022-10-13T07:51:46.735Z,101773.97
2022-10-13T07:54:13.292Z,101769.84
2022-10-13T07:56:39.715Z,101774.78
2022-10-13T07:59:06.187Z,101769.94
2022-10-13T08:01:35.168Z,101770.56
2022-10-13T08:04:01.767Z,101786.94
2022-10-13T08:06:28.417Z,101793.69
2022-10-13T08:08:55.103Z,101774.91
2022-10-13T08:11:21.527Z,101778.94
2022-10-13T08:13:49.922Z,101776.44
2022-10-13T08:16:17.687Z,101781.31
2022-10-13T08:18:44.195Z,101776.09
2022-10-13T08:24:03.876Z,101784.66
2022-10-13T08:26:30.560Z,101784.97
2022-10-13T08:29:16.542Z,101783.66
2022-10-13T08:31:43.855Z,101787.19
2022-10-13T08:34:11.860Z,101781.34
2022-10-13T08:36:38.851Z,101780.84
2022-10-13T08:39:05.650Z,101789.88
2022-10-13T08:41:40.172Z,101788.03
2022-10-13T08:45:05.874Z,101786.06
2022-10-13T08:47:40.667Z,101793.25
2022-10-13T08:50:13.561Z,101788.34
2022-10-13T08:53:09.379Z,101788.34
2022-10-13T08:55:49.428Z,101783.34
2022-10-13T08:58:23.476Z,101774.19
2022-10-13T09:01:16.145Z,101779.75
2022-10-13T09:04:33.146Z,101773.97
2022-10-13T09:07:10.321Z,101777.88
2022-10-13T09:09:38.004Z,101755.00
2022-10-13T09:12:05.588Z,101770.66
2022-10-13T09:14:37.402Z,101764.13
2022-10-13T09:17:25.492Z,101765.66
2022-10-13T09:20:06.070Z,101766.31
2022-10-13T09:22:39.861Z,101764.41
2022-10-13T09:25:12.497Z,101770.72
2022-10-13T09:27:48.077Z,101764.97
2022-10-13T09:30:42.253Z,101760.00
2022-10-13T09:33:09.116Z,101755.03
2022-10-13T09:35:37.074Z,101758.09
2022-10-13T09:38:25.125Z,101758.53
2022-10-13T09:41:09.255Z,101748.66
2022-10-13T09:43:48.164Z,101753.00
2022-10-13T09:46:25.731Z,101751.97
2022-10-13T09:48:59.734Z,101754.97
2022-10-13T09:51:33.805Z,101759.50
2022-10-13T09:54:00.830Z,101751.50
2022-10-13T09:56:36.062Z,101752.00
2022-10-13T09:59:24.602Z,101743.72
2022-10-13T10:01:52.958Z,101745.09
2022-10-13T10:04:23.904Z,101755.72
2022-10-13T10:06:50.709Z,101745.16
2022-10-13T10:09:33.509Z,101747.44
2022-10-13T10:12:02.149Z,101746.00
2022-10-13T10:14:32.405Z,101740.50
2022-10-13T10:17:26.750Z,101731.19
2022-10-13T10:20:20.856Z,101735.41
2022-10-13T10:23:11.392Z,101736.00
2022-10-13T10:25:42.639Z,101739.88
2022-10-13T10:28:47.291Z,101733.50
2022-10-13T10:31:23.605Z,101724.59
2022-10-13T10:34:15.498Z,101720.56
2022-10-13T10:37:36.319Z,101720.03
2022-10-13T10:40:20.219Z,101723.56
2022-10-13T10:43:10.666Z,101718.44
2022-10-13T10:45:39.178Z,101728.94
2022-10-13T10:48:24.850Z,101721.75
2022-10-13T10:50:53.311Z,101727.75
2022-10-13T10:53:54.549Z,101731.50
2022-10-13T10:56:41.051Z,101732.69
2022-10-13T10:59:18.838Z,101718.72
2022-10-13T11:02:07.367Z,101727.34
2022-10-13T11:04:44.140Z,101718.72
2022-10-13T11:07:13.350Z,101718.44
2022-10-13T11:09:42.899Z,101714.72
2022-10-13T11:12:22.205Z,101710.84
2022-10-13T11:14:55.182Z,101703.06
2022-10-13T11:17:27.808Z,101709.19
2022-10-13T11:19:55.077Z,101707.69
2022-10-13T11:22:24.820Z,101705.44
2022-10-13T11:24:58.989Z,101701.44
2022-10-13T11:27:28.296Z,101699.25
2022-10-13T11:29:58.596Z,101703.66
2022-10-13T11:32:30.437Z,101700.78
2022-10-13T11:35:00.902Z,101696.34
2022-10-13T11:38:06.805Z,101696.34
2022-10-13T11:40:46.299Z,101691.09
2022-10-13T11:43:31.165Z,101685.84
2022-10-13T11:45:57.794Z,101684.75
2022-10-13T11:48:27.318Z,101683.53
2022-10-13T11:51:29.458Z,101683.63
2022-10-13T11:54:04.398Z,101685.13
2022-10-13T11:56:51.523Z,101683.03
2022-10-13T11:59:41.048Z,101679.22
2022-10-13T12:02:15.217Z,101666.94
2022-10-13T12:04:58.657Z,101669.97
2022-10-13T12:07:30.407Z,101665.78
2022-10-13T12:10:00.400Z,101667.94
2022-10-13T12:12:27.454Z,101667.50
2022-10-13T12:14:57.806Z,101665.59
2022-10-13T12:17:27.146Z,101671.97
2022-10-13T12:19:59.102Z,101672.75
2022-10-13T12:22:26.140Z,101668.59
2022-10-13T12:25:05.087Z,101668.97
2022-10-13T12:27:41.759Z,101664.88
2022-10-13T12:30:22.585Z,101668.53
2022-10-13T12:32:51.353Z,101658.59
2022-10-13T12:35:20.045Z,101656.75
2022-10-13T12:37:47.904Z,101647.84
2022-10-13T12:40:16.585Z,101651.63
2022-10-13T12:42:44.000Z,101652.28
2022-10-13T12:45:15.930Z,101647.06
2022-10-13T12:47:45.310Z,101645.56
2022-10-13T12:50:30.091Z,101652.06
2022-10-13T12:53:05.366Z,101648.06
2022-10-13T12:55:33.301Z,101640.19
2022-10-13T12:58:04.015Z,101649.22
2022-10-13T13:00:30.976Z,101650.59
2022-10-13T13:03:03.761Z,101646.88
2022-10-13T13:05:31.527Z,101645.34
2022-10-13T13:07:58.356Z,101641.16
2022-10-13T13:10:24.935Z,101644.88
2022-10-13T13:12:53.097Z,101637.63
2022-10-13T13:15:25.833Z,101648.50
2022-10-13T13:17:59.559Z,101648.03
2022-10-13T13:20:43.319Z,101642.50
2022-10-13T13:23:13.556Z,101640.31
2022-10-13T13:25:55.454Z,101639.75
2022-10-13T13:31:32.192Z,101640.34
2022-10-13T13:34:02.193Z,101626.38
2022-10-13T13:36:30.857Z,101635.91
2022-10-13T13:38:57.423Z,101626.66
2022-10-13T13:41:27.927Z,101619.47
2022-10-13T13:43:54.486Z,101620.69
2022-10-13T13:46:25.680Z,101620.81
2022-10-13T13:48:52.445Z,101618.56
2022-10-13T13:51:20.072Z,101617.53
2022-10-13T13:53:46.787Z,101605.53
2022-10-13T13:56:14.763Z,101608.16
2022-10-13T13:58:41.497Z,101607.44
2022-10-13T14:01:08.040Z,101606.47
2022-10-13T14:03:34.619Z,101610.72
2022-10-13T14:06:01.128Z,101607.78
2022-10-13T14:08:31.724Z,101608.19
2022-10-13T14:10:58.667Z,101601.88
2022-10-13T14:13:25.482Z,101604.06
2022-10-13T14:15:59.484Z,101601.88
2022-10-13T14:18:26.330Z,101605.28
2022-10-13T14:20:52.865Z,101600.47
2022-10-13T14:23:20.021Z,101597.09
2022-10-13T14:25:46.687Z,101600.47
2022-10-13T14:28:17.921Z,101592.22
2022-10-13T14:30:45.080Z,101599.69
2022-10-13T14:33:11.621Z,101591.47
2022-10-13T14:35:38.125Z,101596.00
2022-10-13T14:38:04.690Z,101584.72
2022-10-13T14:40:31.322Z,101579.47
2022-10-13T14:42:57.832Z,101581.38
2022-10-13T14:45:24.406Z,101583.03
2022-10-13T14:47:53.606Z,101575.63
2022-10-13T14:50:20.256Z,101577.16
2022-10-13T14:52:46.786Z,101573.03
2022-10-13T14:55:13.466Z,101576.00
2022-10-13T14:57:40.244Z,101575.31
2022-10-13T15:00:07.342Z,101575.25
2022-10-13T15:02:33.829Z,101576.38
2022-10-13T15:05:00.346Z,101577.88
2022-10-13T15:07:26.955Z,101572.88
2022-10-13T15:10:04.985Z,101566.47
2022-10-13T15:12:32.368Z,101571.63
2022-10-13T15:14:59.104Z,101576.22
2022-10-13T15:17:25.994Z,101565.25
2022-10-13T15:19:52.487Z,101562.56
2022-10-13T15:22:19.248Z,101561.03
2022-10-13T15:24:46.212Z,101562.81
2022-10-13T15:27:12.708Z,101559.53
2022-10-13T15:29:39.231Z,101559.41
2022-10-13T15:32:11.034Z,101564.13
2022-10-13T15:34:40.762Z,101559.75
2022-10-13T15:37:07.666Z,101557.75
2022-10-13T15:39:34.225Z,101557.75
2022-10-13T15:42:00.764Z,101558.59
2022-10-13T15:44:27.972Z,101559.28
2022-10-13T15:47:07.429Z,101556.66
2022-10-13T15:49:37.847Z,101556.16
2022-10-13T15:52:04.669Z,101561.72
2022-10-13T15:54:35.783Z,101562.06
2022-10-13T15:57:02.311Z,101559.72
2022-10-13T15:59:28.861Z,101559.72
2022-10-13T16:01:55.325Z,101557.03
2022-10-13T16:04:25.492Z,101548.38
2022-10-13T16:06:51.986Z,101546.09
2022-10-13T16:09:18.694Z,101545.38
2022-10-13T16:11:45.421Z,101545.03
2022-10-13T16:14:12.030Z,101548.72
2022-10-13T16:16:38.561Z,101552.78
2022-10-13T16:19:05.097Z,101547.47
2022-10-13T16:21:31.612Z,101540.69
2022-10-13T16:23:59.488Z,101528.34
2022-10-13T16:26:26.249Z,101534.66
2022-10-13T16:28:57.077Z,101536.56
2022-10-13T16:31:26.705Z,101539.81
2022-10-13T16:33:54.496Z,101537.63
2022-10-13T16:36:21.039Z,101538.63
2022-10-13T16:38:48.054Z,101546.38
2022-10-13T16:41:17.411Z,101548.59
2022-10-13T16:43:45.184Z,101544.84
2022-10-13T16:46:13.827Z,101549.22
2022-10-13T16:48:40.906Z,101549.59
2022-10-13T16:51:09.743Z,101546.94
2022-10-13T16:53:36.629Z,101544.69
2022-10-13T16:56:04.194Z,101549.13
2022-10-13T16:58:31.130Z,101550.25
2022-10-13T17:01:09.241Z,101554.63
2022-10-13T17:03:45.868Z,101558.69
2022-10-13T17:06:14.407Z,101553.81
2022-10-13T17:08:42.271Z,101562.44
2022-10-13T17:11:10.255Z,101560.94
2022-10-13T17:13:37.462Z,101562.69
2022-10-13T17:16:04.241Z,101567.09
2022-10-13T17:18:30.800Z,101570.47
2022-10-13T17:21:01.835Z,101577.53
2022-10-13T17:23:29.796Z,101579.28
2022-10-13T17:26:01.877Z,101583.69
2022-10-13T17:28:33.321Z,101579.22
2022-10-13T17:31:08.907Z,101583.69
2022-10-13T17:37:54.717Z,101590.44
2022-10-13T17:40:32.502Z,101591.88
2022-10-13T17:42:59.544Z,101595.69
2022-10-13T17:45:53.621Z,101593.19
2022-10-13T17:48:28.853Z,101599.25
2022-10-13T17:54:50.325Z,101596.72
2022-10-13T17:57:57.607Z,101603.00
2022-10-13T18:00:43.794Z,101614.47
2022-10-13T18:03:35.409Z,101612.22
2022-10-13T18:06:02.124Z,101607.78
2022-10-13T18:08:37.342Z,101609.88
2022-10-13T18:11:11.018Z,101613.53
2022-10-13T18:13:41.706Z,101611.06
2022-10-13T18:16:13.543Z,101618.63
2022-10-13T18:18:49.211Z,101627.44
2022-10-13T18:24:38.993Z,101626.56
2022-10-13T18:27:10.616Z,101628.59
2022-10-13T18:29:37.464Z,101632.66
2022-10-13T18:32:16.394Z,101637.25
2022-10-13T18:34:46.124Z,101633.53
2022-10-13T18:37:15.972Z,101645.91
2022-10-13T18:40:24.801Z,101654.66
2022-10-13T18:43:27.240Z,101659.44
2022-10-13T18:45:56.367Z,101655.31
2022-10-13T18:48:25.869Z,101656.09
2022-10-13T18:50:57.875Z,101653.44
2022-10-13T18:53:47.982Z,101669.53
2022-10-13T18:56:48.942Z,101667.97
2022-10-13T18:59:21.641Z,101669.72
2022-10-13T19:02:00.256Z,101667.06
2022-10-13T19:04:27.321Z,101671.09
2022-10-13T19:10:16.027Z,101672.50
2022-10-13T19:17:41.457Z,101674.91
2022-10-13T19:20:12.168Z,101669.38
2022-10-13T19:22:39.131Z,101669.78
2022-10-13T19:25:06.401Z,101664.72
2022-10-13T19:27:33.707Z,101671.09
2022-10-13T19:30:02.346Z,101672.66
2022-10-13T19:32:31.795Z,101667.97
2022-10-13T19:34:59.896Z,101663.56
2022-10-13T19:37:28.046Z,101667.66
2022-10-13T19:39:54.842Z,101666.56
2022-10-13T19:42:22.884Z,101664.59
2022-10-13T19:44:50.587Z,101669.72
2022-10-13T19:47:21.252Z,101671.63
2022-10-13T19:49:48.124Z,101678.69
2022-10-13T19:52:14.632Z,101681.19
2022-10-13T19:54:41.188Z,101678.59
2022-10-13T19:57:09.241Z,101673.50
2022-10-13T19:59:36.701Z,101677.28
2022-10-13T20:02:05.216Z,101676.19
2022-10-13T20:04:36.052Z,101674.66
2022-10-13T20:07:04.135Z,101669.38
2022-10-13T20:09:36.629Z,101682.84
2022-10-13T20:12:04.693Z,101675.75
2022-10-13T20:14:36.335Z,101671.09
2022-10-13T20:17:05.862Z,101677.44
2022-10-13T20:19:40.665Z,101684.28
2022-10-13T20:22:36.305Z,101687.53
2022-10-13T20:25:30.220Z,101680.91
2022-10-13T20:32:02.522Z,101690.81
2022-10-13T20:34:34.523Z,101699.53
2022-10-13T20:37:23.292Z,101696.00
2022-10-13T20:40:58.800Z,101688.31
2022-10-13T20:47:48.512Z,101688.00
2022-10-13T20:53:12.659Z,101707.81
2022-10-13T20:56:19.614Z,101694.16
2022-10-13T21:02:23.012Z,101701.91
2022-10-13T21:04:49.960Z,101705.50
2022-10-13T21:07:19.557Z,101714.72
2022-10-13T21:09:55.418Z,101711.25
2022-10-13T21:12:34.676Z,101711.59
2022-10-13T21:15:19.482Z,101713.19
2022-10-13T21:17:51.210Z,101714.03
2022-10-13T21:20:23.002Z,101707.50
2022-10-13T21:22:50.410Z,101719.47
2022-10-13T21:25:17.759Z,101716.09
2022-10-13T21:27:59.429Z,101712.28
2022-10-13T21:30:35.351Z,101714.00
2022-10-13T21:33:01.970Z,101714.34
2022-10-13T21:35:30.264Z,101715.41
2022-10-13T21:37:59.179Z,101700.28
2022-10-13T21:40:26.090Z,101696.13
2022-10-13T21:43:00.255Z,101697.22
2022-10-13T21:45:30.327Z,101702.44
2022-10-13T21:47:57.320Z,101691.59
2022-10-13T21:50:28.131Z,101698.06
2022-10-13T21:52:57.239Z,101695.16
2022-10-13T21:55:26.515Z,101697.31
2022-10-13T21:57:59.613Z,101685.66
2022-10-13T22:00:32.147Z,101691.97
2022-10-13T22:03:01.502Z,101691.97
2022-10-13T22:05:30.679Z,101682.16
2022-10-13T22:07:57.566Z,101686.97
2022-10-13T22:10:24.481Z,101673.78
2022-10-13T22:12:51.383Z,101678.88
2022-10-13T22:15:18.414Z,101668.47
2022-10-13T22:17:45.263Z,101670.31
2022-10-13T22:20:12.119Z,101674.44
2022-10-13T22:22:47.995Z,101671.38
2022-10-13T22:25:15.045Z,101667.69
2022-10-13T22:27:47.061Z,101657.13
2022-10-13T22:30:13.907Z,101655.03
2022-10-13T22:32:43.314Z,101661.78
2022-10-13T22:35:10.056Z,101651.03
2022-10-13T22:37:37.173Z,101655.16
2022-10-13T22:40:05.694Z,101654.28
2022-10-13T22:42:36.785Z,101656.88
2022-10-13T22:45:03.980Z,101641.75
2022-10-13T22:47:31.969Z,101658.31
2022-10-13T22:49:58.665Z,101646.19
2022-10-13T22:52:29.383Z,101645.34
2022-10-13T22:54:57.337Z,101639.34
2022-10-13T22:57:27.074Z,101643.81
2022-10-13T22:59:54.091Z,101644.13
2022-10-13T23:02:21.258Z,101645.84
2022-10-13T23:04:53.300Z,101648.56
2022-10-13T23:07:20.619Z,101641.25
2022-10-13T23:09:48.178Z,101638.88
2022-10-13T23:12:18.219Z,101635.94
2022-10-13T23:14:50.490Z,101631.34
2022-10-13T23:17:22.903Z,101632.41
2022-10-13T23:19:50.358Z,101644.84
2022-10-13T23:22:20.039Z,101639.47
2022-10-13T23:24:50.462Z,101633.06
2022-10-13T23:27:17.815Z,101633.81
2022-10-13T23:29:54.487Z,101634.56
2022-10-13T23:32:23.743Z,101625.25
2022-10-13T23:34:53.141Z,101617.84
2022-10-13T23:37:22.771Z,101611.78
2022-10-13T23:39:57.274Z,101607.31
2022-10-13T23:42:27.135Z,101623.91
2022-10-13T23:44:53.646Z,101612.09
2022-10-13T23:47:20.420Z,101615.78
2022-10-13T23:49:47.095Z,101615.00
2022-10-13T23:52:13.701Z,101613.16
2022-10-13T23:54:40.440Z,101622.38
2022-10-13T23:57:06.894Z,101622.06
2022-10-13T23:59:33.542Z,101620.53
